Time;durP1;ratioP1;P1;durP2;ratioP2;P2;SDS_P1;SDS_P2;PMS_P1;PMS_P2;Temp;Humidity;BMP_temperature;BMP_pressure;BME280_temperature;BME280_humidity;BME280_pressure;Samples;Min_cycle;Max_cycle;Signal;HPM_P1;HPM_P2
2023/09/26 00:02:05;;;;;;;10.75;4.20;;;;;;;21.27;73.77;98481.28;5113543;28;20179;-57
2023/09/26 00:04:31;;;;;;;13.27;4.05;;;;;;;21.33;72.92;98475.31;5113516;28;20171;-56
2023/09/26 00:06:59;;;;;;;6.32;4.55;;;;;;;21.09;72.98;98447.28;5113325;28;20209;-56
2023/09/26 00:09:26;;;;;;;8.90;3.97;;;;;;;21.19;73.60;98495.28;5113374;28;20175;-56
2023/09/26 00:11:52;;;;;;;10.32;4.25;;;;;;;20.91;73.54;98472.97;5113236;28;20632;-57
2023/09/26 00:14:18;;;;;;;11.10;3.65;;;;;;;21.05;73.73;98489.88;5113387;28;20353;-56
2023/09/26 00:16:44;;;;;;;8.82;3.50;;;;;;;21.11;73.49;98492.69;5113315;28;20245;-57
2023/09/26 00:19:09;;;;;;;12.45;3.88;;;;;;;21.09;73.52;98492.00;5109802;28;20316;-56
2023/09/26 00:21:38;;;;;;;9.90;4.25;;;;;;;21.17;72.45;98491.16;5112904;28;20194;-56
2023/09/26 00:24:05;;;;;;;14.27;4.28;;;;;;;21.06;72.86;98491.53;5113102;28;20229;-56
2023/09/26 00:26:31;;;;;;;11.77;3.78;;;;;;;20.76;74.22;98479.06;5094942;28;20278;-57
2023/09/26 00:28:57;;;;;;;16.00;5.13;;;;;;;20.70;74.86;98471.84;5076870;28;20343;-57
2023/09/26 00:31:24;;;;;;;10.02;3.92;;;;;;;20.45;75.06;98462.34;5112856;28;20704;-57
2023/09/26 00:33:49;;;;;;;4.75;3.78;;;;;;;20.54;75.18;98485.00;5112617;28;20178;-57
2023/09/26 00:36:15;;;;;;;9.77;4.00;;;;;;;20.24;75.70;98462.84;5112793;28;20495;-56
2023/09/26 00:38:41;;;;;;;7.70;3.55;;;;;;;20.19;76.57;98480.06;5112819;28;20175;-57
2023/09/26 00:41:07;;;;;;;10.77;3.95;;;;;;;20.21;76.49;98478.09;5113084;28;20277;-57
2023/09/26 00:43:32;;;;;;;7.75;3.53;;;;;;;20.26;76.31;98488.94;5112625;28;20198;-56
2023/09/26 00:46:00;;;;;;;9.63;3.80;;;;;;;20.20;76.31;98476.44;5112628;28;20167;-56
2023/09/26 00:48:26;;;;;;;12.93;3.70;;;;;;;20.10;76.05;98471.34;5112534;28;20696;-56
2023/09/26 00:50:53;;;;;;;12.77;4.10;;;;;;;20.16;76.39;98485.66;5112559;28;20283;-56
2023/09/26 00:53:21;;;;;;;10.45;3.90;;;;;;;20.18;76.26;98500.28;5112573;28;20182;-56
2023/09/26 00:55:49;;;;;;;14.95;3.70;;;;;;;20.17;76.29;98495.19;5112504;28;20175;-56
2023/09/26 00:58:17;;;;;;;8.48;4.28;;;;;;;19.82;76.88;98453.41;5112120;28;20179;-56
2023/09/26 01:00:45;;;;;;;14.82;4.10;;;;;;;20.01;77.23;98493.31;5112284;28;20240;-56
2023/09/26 01:03:11;;;;;;;9.73;3.70;;;;;;;19.83;77.70;98468.16;5112025;28;20175;-56
2023/09/26 01:05:36;;;;;;;12.02;4.47;;;;;;;19.75;77.71;98447.97;5111174;28;20590;-56
2023/09/26 01:08:03;;;;;;;8.20;3.67;;;;;;;19.95;77.69;98474.75;5112034;28;20544;-56
2023/09/26 01:10:29;;;;;;;9.68;4.00;;;;;;;19.75;78.00;98460.28;5112107;28;20261;-56
2023/09/26 01:12:55;;;;;;;13.50;4.35;;;;;;;19.93;78.09;98487.25;5111945;28;20269;-56
2023/09/26 01:15:32;;;;;;;11.20;3.88;;;;;;;19.65;78.07;98443.84;5111763;28;20175;-56
2023/09/26 01:17:57;;;;;;;15.25;4.40;;;;;;;19.41;79.89;98441.16;5112016;28;20653;-56
2023/09/26 01:20:24;;;;;;;10.43;3.95;;;;;;;19.30;80.80;98446.69;5111696;28;20244;-57
2023/09/26 01:22:52;;;;;;;15.23;5.03;;;;;;;19.61;80.29;98476.63;5111871;28;20193;-57
2023/09/26 01:25:17;;;;;;;8.15;3.45;;;;;;;19.65;79.84;98478.78;5111918;28;20211;-57
2023/09/26 01:27:43;;;;;;;8.25;3.70;;;;;;;19.45;79.94;98447.72;5111748;28;20238;-57
2023/09/26 01:30:09;;;;;;;7.90;3.70;;;;;;;19.59;80.49;98476.00;5111494;28;20190;-57
2023/09/26 01:32:34;;;;;;;10.60;4.47;;;;;;;19.41;80.75;98455.09;5111648;28;20764;-57
2023/09/26 01:35:00;;;;;;;7.38;4.13;;;;;;;19.27;82.08;98462.72;5111731;28;20195;-57
2023/09/26 01:37:25;;;;;;;5.78;4.07;;;;;;;19.47;81.35;98479.88;5111634;28;20175;-57
2023/09/26 01:39:51;;;;;;;9.65;4.47;;;;;;;19.29;81.17;98456.34;5111391;28;20198;-58
2023/09/26 01:42:16;;;;;;;9.10;4.20;;;;;;;19.36;81.05;98461.81;5111570;28;20171;-57
2023/09/26 01:44:41;;;;;;;8.00;3.63;;;;;;;19.38;81.75;98480.81;5111575;28;20171;-57
2023/09/26 01:47:14;;;;;;;7.43;3.80;;;;;;;19.16;81.85;98455.09;5111511;28;20226;-57
2023/09/26 01:49:40;;;;;;;15.68;4.43;;;;;;;19.22;81.77;98433.53;5111511;28;20183;-57
2023/09/26 01:52:06;;;;;;;10.27;4.00;;;;;;;19.34;81.79;98471.59;5111538;28;20167;-57
2023/09/26 01:54:31;;;;;;;11.80;4.63;;;;;;;19.29;82.00;98466.03;5111154;28;20175;-57
2023/09/26 01:56:56;;;;;;;8.57;3.88;;;;;;;19.46;81.35;98475.63;5048165;28;20291;-57
2023/09/26 01:59:22;;;;;;;4.35;3.95;;;;;;;19.29;81.64;98437.19;5048387;28;20238;-57
2023/09/26 02:01:47;;;;;;;10.75;4.18;;;;;;;19.44;81.30;98461.81;5048243;28;20587;-57
2023/09/26 02:04:13;;;;;;;10.23;4.40;;;;;;;19.35;81.03;98436.53;5048307;28;20264;-57
2023/09/26 02:06:38;;;;;;;9.73;3.88;;;;;;;19.35;80.66;98437.34;5048186;28;20187;-57
2023/09/26 02:09:03;;;;;;;12.00;4.57;;;;;;;19.45;81.39;98477.41;5048224;28;20185;-57
2023/09/26 02:11:29;;;;;;;8.23;4.18;;;;;;;19.30;81.24;98444.88;5048200;28;20220;-57
2023/09/26 02:13:55;;;;;;;11.20;4.03;;;;;;;19.43;80.40;98452.31;5047843;28;20287;-57
2023/09/26 02:16:21;;;;;;;7.65;4.63;;;;;;;19.50;80.25;98463.81;5047158;28;20177;-57
2023/09/26 02:18:47;;;;;;;11.85;4.20;;;;;;;19.43;80.32;98457.56;5008320;28;20225;-57
2023/09/26 02:21:16;;;;;;;13.18;4.00;;;;;;;19.61;80.32;98481.88;5008318;28;20329;-58
2023/09/26 02:23:41;;;;;;;9.93;4.50;;;;;;;19.56;80.35;98471.03;5008318;28;20233;-57
2023/09/26 02:26:07;;;;;;;10.05;4.10;;;;;;;19.35;80.63;98444.41;5008459;28;20262;-57
2023/09/26 02:28:32;;;;;;;12.43;4.32;;;;;;;19.54;81.04;98462.50;5008335;28;20309;-57
2023/09/26 02:30:57;;;;;;;12.52;4.18;;;;;;;19.30;82.42;98450.13;5008314;28;20193;-57
2023/09/26 02:33:23;;;;;;;11.23;4.10;;;;;;;19.22;82.79;98454.50;5013668;28;20210;-57
2023/09/26 02:35:48;;;;;;;11.65;3.92;;;;;;;19.18;82.79;98445.31;5067912;28;20177;-58
2023/09/26 02:38:13;;;;;;;11.52;4.38;;;;;;;19.44;81.04;98461.81;5067941;28;20242;-57
2023/09/26 02:40:39;;;;;;;11.70;4.15;;;;;;;19.34;82.04;98440.97;5067932;28;20307;-57
2023/09/26 02:43:04;;;;;;;9.38;4.00;;;;;;;19.64;82.07;98481.59;5067841;28;20191;-57
2023/09/26 02:45:30;;;;;;;9.57;4.22;;;;;;;19.60;81.82;98469.75;5067873;28;20172;-57
2023/09/26 02:47:55;;;;;;;9.45;3.67;;;;;;;19.85;80.71;98487.19;5067735;28;20677;-57
2023/09/26 02:50:22;;;;;;;13.07;4.10;;;;;;;19.72;81.20;98471.09;5067808;28;20211;-58
2023/09/26 02:52:47;;;;;;;17.92;4.65;;;;;;;19.60;83.73;98470.59;5067889;28;20670;-56
2023/09/26 02:55:13;;;;;;;9.80;4.13;;;;;;;19.67;83.09;98455.00;5071647;28;20180;-56
2023/09/26 02:57:38;;;;;;;8.85;4.32;;;;;;;19.81;82.90;98468.31;5067524;28;20184;-56
2023/09/26 03:00:12;;;;;;;12.73;4.53;;;;;;;19.78;82.56;98452.06;5067765;28;20195;-56
2023/09/26 03:02:38;;;;;;;9.30;4.47;;;;;;;19.90;83.16;98467.38;5067768;28;20191;-57
2023/09/26 03:05:04;;;;;;;13.73;4.65;;;;;;;19.94;83.14;98466.03;5067747;28;20584;-57
2023/09/26 03:07:29;;;;;;;7.55;4.03;;;;;;;19.85;82.78;98453.91;5067590;28;20235;-57
2023/09/26 03:09:55;;;;;;;9.85;4.07;;;;;;;19.84;83.75;98467.19;5067668;28;20200;-57
2023/09/26 03:12:20;;;;;;;10.90;4.65;;;;;;;19.58;84.91;98448.09;5067354;28;20203;-57
2023/09/26 03:14:45;;;;;;;9.98;4.10;;;;;;;19.65;84.90;98452.53;5067639;28;20180;-58
2023/09/26 03:17:11;;;;;;;9.88;5.15;;;;;;;19.71;84.64;98461.59;5067611;28;20188;-58
2023/09/26 03:19:36;;;;;;;8.85;4.82;;;;;;;19.83;84.43;98468.16;5067577;28;20176;-57
2023/09/26 03:22:03;;;;;;;12.85;4.50;;;;;;;19.76;84.20;98454.84;5067553;28;20181;-57
2023/09/26 03:24:28;;;;;;;13.32;4.75;;;;;;;19.86;83.77;98463.41;5067463;28;20654;-57
2023/09/26 03:26:54;;;;;;;13.68;4.95;;;;;;;19.63;85.21;98448.41;5067363;28;20197;-57
2023/09/26 03:29:19;;;;;;;12.43;4.50;;;;;;;19.49;85.76;98435.91;5102871;28;20183;-57
2023/09/26 03:31:45;;;;;;;17.95;4.60;;;;;;;19.70;85.73;98478.31;5114132;28;20289;-57
2023/09/26 03:34:11;;;;;;;11.23;4.72;;;;;;;19.60;84.40;98448.75;5114143;28;20232;-57
2023/09/26 03:36:37;;;;;;;10.85;4.40;;;;;;;19.76;83.56;98454.84;5114392;28;20167;-57
2023/09/26 03:39:03;;;;;;;8.63;4.47;;;;;;;19.95;84.10;98482.63;5114029;28;20179;-57
2023/09/26 03:41:30;;;;;;;7.88;4.32;;;;;;;19.87;83.70;98465.06;5114012;28;20550;-57
2023/09/26 03:43:55;;;;;;;14.13;4.70;;;;;;;20.27;82.37;98498.47;5113938;28;20250;-57
2023/09/26 03:46:20;;;;;;;10.60;4.43;;;;;;;20.06;83.82;98483.16;5113825;28;20258;-57
2023/09/26 03:48:48;;;;;;;11.45;4.22;;;;;;;19.92;84.06;98464.56;5113848;28;20629;-57
2023/09/26 03:51:14;;;;;;;18.05;4.70;;;;;;;19.88;85.64;98505.28;5114104;28;20179;-57
2023/09/26 03:53:41;;;;;;;8.75;4.40;;;;;;;19.54;86.67;98465.97;5113475;28;20200;-57
2023/09/26 03:56:07;;;;;;;10.00;4.63;;;;;;;19.67;86.00;98476.84;5113729;28;20174;-57
2023/09/26 03:58:34;;;;;;;9.50;4.38;;;;;;;19.64;85.91;98464.00;5070428;28;20199;-57
2023/09/26 04:01:16;;;;;;;13.55;4.60;;;;;;;19.88;85.63;98492.16;5070525;28;20273;-57
2023/09/26 04:03:46;;;;;;;13.00;4.68;;;;;;;19.85;85.77;98489.81;5070501;28;20267;-57
2023/09/26 04:06:12;;;;;;;10.70;4.68;;;;;;;20.00;85.67;98510.03;5070404;28;20180;-57
2023/09/26 04:08:38;;;;;;;11.35;4.93;;;;;;;19.77;87.54;98497.69;5070219;28;20243;-57
2023/09/26 04:11:03;;;;;;;10.00;4.43;;;;;;;19.83;86.75;98486.56;5070405;28;20656;-57
2023/09/26 04:13:28;;;;;;;18.45;5.22;;;;;;;19.74;86.60;98472.59;5070001;28;20204;-57
2023/09/26 04:15:55;;;;;;;15.90;4.75;;;;;;;19.97;86.51;98510.38;5070376;28;20291;-57
2023/09/26 04:18:22;;;;;;;8.13;4.47;;;;;;;19.71;87.13;98490.47;5070235;28;20195;-57
2023/09/26 04:20:49;;;;;;;11.77;5.38;;;;;;;19.74;86.50;98474.38;5070062;28;20226;-58
2023/09/26 04:23:14;;;;;;;9.70;4.90;;;;;;;19.68;87.18;98482.88;5069995;28;20181;-57
2023/09/26 04:25:40;;;;;;;14.82;5.43;;;;;;;19.69;87.86;98506.38;5069956;28;20226;-57
2023/09/26 04:28:05;;;;;;;16.48;5.03;;;;;;;19.31;89.83;98483.28;5069695;28;20216;-58
2023/09/26 04:30:35;;;;;;;13.95;5.20;;;;;;;19.41;91.23;98515.44;5088301;28;20693;-58
2023/09/26 04:33:00;;;;;;;13.55;5.07;;;;;;;19.37;92.14;98510.69;5090122;28;20191;-57
2023/09/26 04:35:26;;;;;;;11.57;5.25;;;;;;;19.48;91.54;98508.56;5090098;28;20634;-58
2023/09/26 04:37:52;;;;;;;11.30;5.25;;;;;;;19.64;90.31;98503.41;5089828;28;20210;-56
2023/09/26 04:40:18;;;;;;;14.20;4.97;;;;;;;19.72;89.95;98516.56;5089597;28;20270;-56
2023/09/26 04:42:48;;;;;;;12.63;5.22;;;;;;;19.86;89.01;98522.97;5089914;28;20270;-57
2023/09/26 04:45:13;;;;;;;15.27;5.10;;;;;;;20.00;87.50;98525.00;5089821;28;20176;-57
2023/09/26 04:47:38;;;;;;;9.43;4.53;;;;;;;20.11;87.10;98525.53;5089684;28;20241;-57
2023/09/26 04:50:06;;;;;;;7.53;4.75;;;;;;;20.21;84.94;98507.00;5089907;28;20256;-57
2023/09/26 04:52:31;;;;;;;12.45;4.85;;;;;;;20.27;83.95;98506.34;5089593;28;20199;-57
2023/09/26 04:54:57;;;;;;;17.63;5.13;;;;;;;20.31;83.86;98512.91;5089751;28;20650;-57
2023/09/26 04:57:22;;;;;;;11.57;5.28;;;;;;;20.31;84.10;98518.19;5089612;28;20190;-57
2023/09/26 04:59:47;;;;;;;17.88;5.30;;;;;;;20.31;84.72;98540.03;5107533;28;20186;-57
2023/09/26 05:02:13;;;;;;;10.65;4.90;;;;;;;20.00;85.45;98494.28;5112116;28;20171;-57
2023/09/26 05:04:40;;;;;;;13.60;5.13;;;;;;;20.17;85.72;98517.00;5112334;28;20232;-57
2023/09/26 05:07:07;;;;;;;17.50;5.50;;;;;;;20.28;86.10;98542.19;5112208;28;20206;-57
2023/09/26 05:09:33;;;;;;;17.55;5.03;;;;;;;20.26;87.01;98537.06;5112153;28;20181;-57
2023/09/26 05:11:58;;;;;;;13.75;4.97;;;;;;;20.08;88.01;98514.53;5112240;28;20175;-56
2023/09/26 05:14:23;;;;;;;17.65;5.68;;;;;;;20.29;85.99;98538.56;5111925;28;20347;-57
2023/09/26 05:16:49;;;;;;;16.58;5.13;;;;;;;20.35;84.56;98535.28;5112109;28;20179;-57
2023/09/26 05:19:15;;;;;;;12.15;5.20;;;;;;;20.44;85.40;98550.06;5111976;28;20174;-57
2023/09/26 05:21:40;;;;;;;14.80;5.63;;;;;;;20.29;84.94;98504.38;5112246;28;20175;-57
2023/09/26 05:24:07;;;;;;;10.40;4.60;;;;;;;20.38;84.26;98506.03;5112178;28;20486;-57
2023/09/26 05:26:33;;;;;;;17.33;5.15;;;;;;;20.64;83.55;98546.94;5088822;28;20191;-57
2023/09/26 05:28:58;;;;;;;13.07;4.53;;;;;;;20.44;83.52;98514.09;5089079;28;20211;-57
2023/09/26 05:31:28;;;;;;;8.57;5.05;;;;;;;20.67;82.82;98554.50;5089358;28;20188;-57
2023/09/26 05:33:56;;;;;;;9.73;4.50;;;;;;;20.56;81.15;98520.66;5089224;28;20187;-58
2023/09/26 05:36:22;;;;;;;11.93;4.85;;;;;;;20.60;80.75;98516.72;5089052;28;20642;-57
2023/09/26 05:38:47;;;;;;;11.38;4.47;;;;;;;20.73;80.45;98548.59;5068752;28;20271;-57
2023/09/26 05:41:13;;;;;;;12.63;5.25;;;;;;;20.80;79.45;98548.78;5068803;28;20212;-57
2023/09/26 05:43:38;;;;;;;12.70;4.95;;;;;;;20.90;76.99;98549.44;5068714;28;20200;-57
2023/09/26 05:46:04;;;;;;;9.20;4.35;;;;;;;20.82;76.23;98536.25;5068759;28;20216;-57
2023/09/26 05:48:29;;;;;;;8.77;4.47;;;;;;;20.71;76.63;98515.56;5068618;28;20216;-57
2023/09/26 05:51:04;;;;;;;10.18;4.47;;;;;;;20.81;77.47;98555.66;5068618;28;20234;-57
2023/09/26 05:53:30;;;;;;;12.80;4.20;;;;;;;20.92;78.49;98536.94;5068506;28;20185;-57
2023/09/26 05:55:56;;;;;;;13.27;4.15;;;;;;;21.09;78.08;98549.91;5068586;28;20180;-57
2023/09/26 05:58:22;;;;;;;9.65;4.47;;;;;;;21.00;77.61;98515.88;5085552;28;20326;-57
2023/09/26 06:00:48;;;;;;;13.60;4.00;;;;;;;21.24;75.66;98550.88;5088889;28;20584;-57
2023/09/26 06:03:17;;;;;;;8.65;4.25;;;;;;;21.06;75.16;98528.38;5088745;28;20190;-57
2023/09/26 06:05:43;;;;;;;13.10;4.82;;;;;;;21.29;74.84;98552.97;5088755;28;20175;-58
2023/09/26 06:08:08;;;;;;;11.50;4.38;;;;;;;21.16;75.41;98544.81;5088694;28;20203;-57
2023/09/26 06:10:34;;;;;;;10.60;5.10;;;;;;;21.14;75.95;98533.59;5107256;28;20316;-57
2023/09/26 06:13:00;;;;;;;8.70;5.38;;;;;;;21.30;76.47;98554.63;5111428;28;20190;-57
2023/09/26 06:15:25;;;;;;;11.60;5.03;;;;;;;21.23;76.65;98524.72;5111111;28;20171;-57
2023/09/26 06:18:00;;;;;;;14.65;4.25;;;;;;;21.49;75.56;98543.69;5111194;28;20171;-57
2023/09/26 06:20:29;;;;;;;12.70;4.50;;;;;;;21.66;72.96;98545.28;5111212;28;20178;-57
2023/09/26 06:22:55;;;;;;;15.80;4.72;;;;;;;21.70;72.94;98550.09;5111348;28;20176;-57
2023/09/26 06:25:24;;;;;;;18.55;4.47;;;;;;;21.87;73.41;98564.00;5111316;28;20187;-57
2023/09/26 06:27:50;;;;;;;15.48;4.47;;;;;;;22.03;72.97;98577.09;5110967;28;20199;-58
2023/09/26 06:30:15;;;;;;;13.35;4.60;;;;;;;21.88;71.45;98540.13;5111389;28;20220;-57
2023/09/26 06:32:41;;;;;;;18.52;4.75;;;;;;;22.09;71.44;98560.59;5111251;28;20178;-58
2023/09/26 06:35:07;;;;;;;6.80;4.03;;;;;;;22.00;71.85;98575.63;5111259;28;20182;-57
2023/09/26 06:37:32;;;;;;;19.23;4.78;;;;;;;22.01;71.58;98545.66;5111186;28;20183;-57
2023/09/26 06:40:00;;;;;;;18.88;5.22;;;;;;;22.20;72.38;98547.81;5111092;28;20205;-57
2023/09/26 06:42:26;;;;;;;16.83;5.28;;;;;;;22.35;71.52;98537.34;5111140;28;20746;-57
2023/09/26 06:44:52;;;;;;;12.98;4.40;;;;;;;22.44;69.67;98562.72;5111061;28;20175;-58
2023/09/26 06:47:18;;;;;;;15.13;5.28;;;;;;;22.34;69.98;98562.09;5110976;28;20680;-57
2023/09/26 06:49:43;;;;;;;12.57;4.85;;;;;;;22.26;71.86;98554.25;5111119;28;20268;-57
2023/09/26 06:52:09;;;;;;;20.67;4.88;;;;;;;22.18;72.92;98549.00;5106073;28;20175;-58
2023/09/26 06:54:34;;;;;;;16.75;4.88;;;;;;;22.29;72.40;98559.16;5111078;28;20278;-58
2023/09/26 06:56:59;;;;;;;12.18;4.68;;;;;;;22.24;71.48;98545.66;5111037;28;20725;-58
2023/09/26 06:59:25;;;;;;;13.82;4.78;;;;;;;22.22;72.50;98552.94;5110865;28;20175;-58
2023/09/26 07:01:50;;;;;;;15.65;4.53;;;;;;;22.23;71.79;98563.31;5111010;28;20193;-58
2023/09/26 07:04:15;;;;;;;13.35;4.72;;;;;;;22.37;70.81;98585.47;5114275;28;20590;-58
2023/09/26 07:06:41;;;;;;;18.52;4.95;;;;;;;22.23;70.92;98570.38;5115132;28;20258;-58
2023/09/26 07:09:08;;;;;;;18.00;4.65;;;;;;;22.16;71.97;98557.09;5114834;28;20179;-58
2023/09/26 07:11:33;;;;;;;11.65;5.00;;;;;;;22.18;72.43;98568.28;5114335;28;20175;-58
2023/09/26 07:13:59;;;;;;;12.10;5.15;;;;;;;22.35;72.72;98579.53;5114291;28;20202;-58
2023/09/26 07:16:25;;;;;;;14.85;4.80;;;;;;;22.31;72.14;98565.09;5114569;28;20653;-58
2023/09/26 07:18:51;;;;;;;13.45;5.18;;;;;;;22.27;73.17;98561.94;5114342;28;20194;-58
2023/09/26 07:21:16;;;;;;;18.00;6.10;;;;;;;22.38;73.11;98585.28;5114630;28;20177;-58
2023/09/26 07:23:43;;;;;;;12.40;4.70;;;;;;;22.09;71.41;98548.22;5114580;28;20174;-58
2023/09/26 07:26:13;;;;;;;12.95;4.72;;;;;;;22.21;72.14;98562.66;5114583;28;20176;-57
2023/09/26 07:28:45;;;;;;;14.15;4.80;;;;;;;22.42;72.29;98588.38;5114639;28;20249;-58
2023/09/26 07:31:12;;;;;;;16.63;5.95;;;;;;;22.47;72.05;98591.34;5114374;28;20167;-57
2023/09/26 07:33:38;;;;;;;17.40;5.47;;;;;;;22.39;73.29;98571.13;5114391;28;20515;-57
2023/09/26 07:36:04;;;;;;;20.02;5.43;;;;;;;22.47;73.45;98594.00;5114274;28;20174;-57
2023/09/26 07:38:31;;;;;;;24.25;5.80;;;;;;;22.30;73.30;98561.63;5114139;28;20590;-58
2023/09/26 07:40:56;;;;;;;19.73;5.72;;;;;;;22.32;73.59;98575.44;5114172;28;20728;-58
2023/09/26 07:43:22;;;;;;;14.68;6.43;;;;;;;22.40;73.20;98579.84;5114135;28;20291;-57
2023/09/26 07:45:47;;;;;;;24.63;6.00;;;;;;;22.45;72.91;98590.72;5113767;28;20223;-57
2023/09/26 07:48:12;;;;;;;18.13;5.63;;;;;;;22.43;73.00;98595.31;5113874;28;20210;-57
2023/09/26 07:50:38;;;;;;;23.85;6.38;;;;;;;22.50;73.65;98594.47;5114010;28;20258;-58
2023/09/26 07:53:03;;;;;;;20.88;6.25;;;;;;;22.45;73.57;98564.34;5114039;28;20178;-57
2023/09/26 07:55:29;;;;;;;20.05;6.13;;;;;;;22.82;72.65;98599.50;5113893;28;20163;-58
2023/09/26 07:57:54;;;;;;;24.40;6.35;;;;;;;22.81;71.38;98570.66;5113834;28;20195;-58
2023/09/26 08:00:19;;;;;;;26.33;5.38;;;;;;;22.93;71.34;98577.16;5113528;28;20199;-57
2023/09/26 08:02:45;;;;;;;25.40;5.72;;;;;;;23.16;70.53;98599.88;5113532;28;20167;-57
2023/09/26 08:05:11;;;;;;;15.70;5.05;;;;;;;23.07;69.24;98574.53;5113702;28;20567;-57
2023/09/26 08:07:38;;;;;;;9.68;4.38;;;;;;;23.36;68.62;98605.50;5113492;28;20229;-57
2023/09/26 08:10:04;;;;;;;11.50;5.30;;;;;;;23.23;68.45;98565.69;5113641;28;20233;-57
2023/09/26 08:12:30;;;;;;;12.80;5.35;;;;;;;23.47;67.71;98605.03;5113432;28;20517;-56
2023/09/26 08:14:56;;;;;;;14.57;7.18;;;;;;;23.39;68.33;98579.56;5112950;28;20171;-57
2023/09/26 08:17:22;;;;;;;14.20;5.57;;;;;;;23.62;67.67;98593.50;5113231;28;20558;-57
2023/09/26 08:19:47;;;;;;;36.75;12.50;;;;;;;23.59;67.45;98566.63;5113370;28;20258;-57
2023/09/26 08:22:13;;;;;;;18.17;6.68;;;;;;;23.65;67.32;98584.38;5113342;28;20175;-57
2023/09/26 08:24:39;;;;;;;16.52;5.13;;;;;;;23.76;67.65;98595.31;5113324;28;20175;-57
2023/09/26 08:27:05;;;;;;;14.45;5.43;;;;;;;23.73;68.04;98594.84;5113293;28;20222;-57
2023/09/26 08:29:30;;;;;;;13.10;4.93;;;;;;;23.81;68.42;98604.31;5113287;28;20603;-57
2023/09/26 08:31:56;;;;;;;11.25;4.72;;;;;;;23.81;67.71;98595.56;5113149;28;20177;-57
2023/09/26 08:34:22;;;;;;;21.70;5.82;;;;;;;23.67;68.41;98590.28;5112934;28;20171;-57
2023/09/26 08:36:48;;;;;;;14.15;5.28;;;;;;;23.62;68.27;98597.94;5113108;28;20258;-57
2023/09/26 08:39:13;;;;;;;20.45;5.60;;;;;;;23.38;69.20;98579.72;5113025;28;20254;-57
2023/09/26 08:41:44;;;;;;;21.90;5.35;;;;;;;23.41;69.62;98584.63;5113018;28;20210;-57
2023/09/26 08:44:11;;;;;;;13.60;5.03;;;;;;;23.42;69.34;98579.16;5112982;28;20217;-57
2023/09/26 08:46:37;;;;;;;11.65;5.53;;;;;;;23.28;68.36;98563.31;5112776;28;20185;-57
2023/09/26 08:49:04;;;;;;;16.92;7.38;;;;;;;23.23;70.76;98597.34;5112768;28;20195;-57
2023/09/26 08:51:29;;;;;;;12.13;5.05;;;;;;;23.26;70.14;98583.81;5089636;28;20192;-56
2023/09/26 08:53:55;;;;;;;11.82;4.93;;;;;;;23.33;68.91;98555.66;5089884;28;20660;-57
2023/09/26 08:56:20;;;;;;;11.07;4.65;;;;;;;23.59;68.26;98574.56;5089881;28;20270;-57
2023/09/26 08:58:49;;;;;;;13.45;4.95;;;;;;;23.78;67.66;98583.53;5089874;28;20184;-57
2023/09/26 09:01:17;;;;;;;17.42;5.15;;;;;;;23.81;66.48;98553.28;5089686;28;20586;-56
2023/09/26 09:03:42;;;;;;;19.42;4.80;;;;;;;24.09;65.78;98559.56;5089954;28;20655;-57
2023/09/26 09:06:08;;;;;;;15.18;5.28;;;;;;;24.32;64.89;98565.50;5089708;28;20259;-57
2023/09/26 09:08:34;;;;;;;17.40;4.75;;;;;;;24.50;65.23;98558.75;5089605;28;20207;-57
2023/09/26 09:10:59;;;;;;;13.40;4.40;;;;;;;24.74;64.08;98558.41;5089672;28;20184;-57
2023/09/26 09:13:30;;;;;;;13.20;4.35;;;;;;;24.89;63.19;98559.16;5089366;28;20290;-57
2023/09/26 09:16:17;;;;;;;17.70;5.00;;;;;;;25.10;61.96;98577.66;5089482;28;20187;-57
2023/09/26 09:18:50;;;;;;;12.82;5.03;;;;;;;25.13;61.96;98582.56;5069000;28;20238;-57
2023/09/26 09:21:24;;;;;;;13.93;5.47;;;;;;;25.04;61.19;98556.44;5069129;28;20287;-57
2023/09/26 09:23:51;;;;;;;19.27;4.95;;;;;;;25.17;60.85;98557.34;5069110;28;20291;-57
2023/09/26 09:26:19;;;;;;;16.38;4.70;;;;;;;25.24;61.00;98555.59;5068212;28;20177;-57
2023/09/26 09:28:44;;;;;;;23.67;6.13;;;;;;;25.24;60.36;98541.50;5077442;28;20211;-57
2023/09/26 09:31:13;;;;;;;13.65;4.63;;;;;;;25.44;59.60;98558.38;5089214;28;20206;-57
2023/09/26 09:33:43;;;;;;;17.40;5.72;;;;;;;25.49;59.04;98555.94;5089123;28;20202;-57
2023/09/26 09:36:08;;;;;;;18.92;5.53;;;;;;;25.45;58.56;98546.75;5089082;28;20184;-57
2023/09/26 09:38:34;;;;;;;15.50;5.75;;;;;;;25.55;59.06;98550.66;5089020;28;20183;-57
2023/09/26 09:40:59;;;;;;;12.45;4.78;;;;;;;25.60;59.67;98547.47;5088988;28;20176;-57
2023/09/26 09:43:25;;;;;;;27.35;6.00;;;;;;;25.67;58.43;98549.09;5088891;28;20213;-57
2023/09/26 09:45:54;;;;;;;15.18;4.88;;;;;;;25.21;58.98;98540.06;5088811;28;20179;-57
2023/09/26 09:48:22;;;;;;;15.02;5.10;;;;;;;25.43;59.51;98562.84;5088835;28;20203;-57
2023/09/26 09:50:52;;;;;;;13.05;4.82;;;;;;;25.25;59.54;98549.28;5110490;28;20568;-57
2023/09/26 09:53:21;;;;;;;11.30;4.80;;;;;;;25.40;58.69;98554.47;5111631;28;20278;-57
2023/09/26 09:55:48;;;;;;;19.60;4.97;;;;;;;25.39;58.68;98564.25;5111473;28;20252;-57
2023/09/26 09:58:17;;;;;;;20.05;5.10;;;;;;;25.31;59.17;98548.50;5111443;28;20177;-57
2023/09/26 10:00:42;;;;;;;14.57;4.75;;;;;;;25.07;58.74;98567.44;5111505;28;20178;-57
2023/09/26 10:03:10;;;;;;;23.00;5.38;;;;;;;24.66;60.19;98529.44;5111518;28;20166;-57
2023/09/26 10:05:38;;;;;;;14.85;4.60;;;;;;;24.63;61.12;98527.19;5111374;28;20182;-57
2023/09/26 10:08:06;;;;;;;15.48;4.57;;;;;;;24.65;60.30;98541.03;5111181;28;20602;-57
2023/09/26 10:10:33;;;;;;;20.27;5.03;;;;;;;24.64;60.81;98552.63;5111305;28;20175;-57
2023/09/26 10:13:01;;;;;;;23.13;4.88;;;;;;;24.55;61.10;98519.34;5111298;28;20238;-57
2023/09/26 10:15:27;;;;;;;15.07;5.25;;;;;;;24.75;61.32;98538.91;5111323;28;20180;-57
2023/09/26 10:17:52;;;;;;;13.23;4.75;;;;;;;24.81;60.74;98534.66;5111260;28;20281;-57
2023/09/26 10:20:18;;;;;;;14.18;4.78;;;;;;;24.99;59.93;98554.38;5111062;28;20604;-58
2023/09/26 10:22:44;;;;;;;17.98;5.30;;;;;;;25.16;59.43;98545.13;5111315;28;20590;-57
2023/09/26 10:25:23;;;;;;;14.82;5.15;;;;;;;25.16;58.81;98523.94;5111220;28;20191;-58
2023/09/26 10:27:50;;;;;;;13.80;5.38;;;;;;;25.45;58.92;98547.56;5111233;28;20209;-58
2023/09/26 10:30:18;;;;;;;13.80;4.85;;;;;;;25.40;58.73;98512.91;5111163;28;20175;-58
2023/09/26 10:32:44;;;;;;;12.70;4.75;;;;;;;25.63;58.19;98531.97;5111231;28;20175;-58
2023/09/26 10:35:12;;;;;;;24.33;4.93;;;;;;;25.77;58.41;98544.25;5111185;28;20262;-58
2023/09/26 10:37:38;;;;;;;17.20;4.90;;;;;;;25.76;58.33;98547.94;5111721;28;20228;-58
2023/09/26 10:40:03;;;;;;;12.63;4.43;;;;;;;25.75;57.73;98553.41;5115392;28;20182;-57
2023/09/26 10:42:29;;;;;;;16.10;4.63;;;;;;;25.70;58.67;98534.63;5115379;28;20194;-57
2023/09/26 10:44:54;;;;;;;18.85;5.28;;;;;;;25.73;58.21;98536.91;5115253;28;20645;-57
2023/09/26 10:47:23;;;;;;;16.33;4.18;;;;;;;25.87;56.05;98504.94;5115171;28;20195;-57
2023/09/26 10:49:49;;;;;;;10.68;4.10;;;;;;;26.09;55.46;98517.09;5115184;28;20190;-57
2023/09/26 10:52:15;;;;;;;15.93;4.50;;;;;;;26.20;55.02;98532.44;5115150;28;20179;-57
2023/09/26 10:54:42;;;;;;;17.17;4.72;;;;;;;26.00;55.31;98507.66;5115154;28;20180;-57
2023/09/26 10:57:14;;;;;;;19.25;3.97;;;;;;;25.97;56.26;98526.63;5115009;28;20259;-57
2023/09/26 10:59:40;;;;;;;17.15;4.88;;;;;;;25.88;56.87;98532.25;5115360;28;20280;-57
2023/09/26 11:02:05;;;;;;;14.63;4.53;;;;;;;25.79;56.93;98526.34;5114971;28;20262;-57
2023/09/26 11:04:32;;;;;;;19.50;4.43;;;;;;;25.85;57.74;98533.50;5114620;28;20202;-57
2023/09/26 11:06:59;;;;;;;15.55;4.00;;;;;;;25.47;57.35;98500.50;5115050;28;20277;-57
2023/09/26 11:09:26;;;;;;;15.80;4.53;;;;;;;25.52;58.01;98506.03;5114834;28;20182;-57
2023/09/26 11:11:54;;;;;;;7.95;4.30;;;;;;;25.72;59.10;98529.97;5114721;28;20170;-57
2023/09/26 11:14:20;;;;;;;16.80;3.95;;;;;;;25.53;58.33;98494.41;5114754;28;20187;-57
2023/09/26 11:16:46;;;;;;;13.50;4.60;;;;;;;25.56;58.03;98499.31;5114882;28;20554;-57
2023/09/26 11:19:11;;;;;;;19.33;4.05;;;;;;;25.75;57.75;98503.88;5114685;28;20171;-57
2023/09/26 11:21:37;;;;;;;17.63;4.90;;;;;;;25.81;56.50;98504.91;5114644;28;20548;-57
2023/09/26 11:24:18;;;;;;;13.88;3.80;;;;;;;25.65;57.62;98516.69;5114300;28;20207;-58